الصفحة الرئيسية
METAR-TAF:

METAR-TAF

مطار :

مطار فيينا الدولي

فيينا, النمسا

دائرة عرض: 48-07N, خط طول: 016-34E, ارتفاع: 183 متر

مراقبة الطقس الحالي

تاريخ ووقت الإصدار 33 دقيقة قبل الساعة 23:50UTC
ريح 4 عقدة من الجنوب/الجنوب الشرقي
درجة الحرارة 18°درجة مئوية
الرطوبة 73%
ضغط 1016 hPa
الرؤية 10 كم أو أكثر
الغيوم لا تقل 1500 م ولا وجود لمزنة ركامية السحاب الأسود

METAR: LOWW 172350Z 16004KT CAVOK 18/13 Q1016 NOSIG

زمن: 02:23 (00:23 UTC)

توقعات

تاريخ ووقت الإصدار 1ساعة و 8 دقيقة قبل الساعة 23:15UTC
التوقعات صالحة من18 الساعة 00 UTC إلى 19 الساعة 06 UTC
ريح 2 عقدةمن اتجاهات متغيرة
الرؤية 10 كم أو أكثر
الغيوم لا تقل 1500 م ولا وجود لمزنة ركامية السحاب الأسود

TAF: LOWW 172315Z 1800/1906 VRB02KT CAVOK TX32/1814Z TN16/1802Z

أرصاد الطقس والتوقعات من أكثر من 4000 مطار (تقارير الطقس للمطار METAR والتنبؤ بالطقس بالمطارTAF).

المحطات المتاحة هي النقط الصفراء والحمراء على الخريطة.

حرك المؤشر فوق النقطة لمعرفة اسم المحطة.

ثم انقر لمعرفة أرصاد وتوقعات الطقس.

لتغيير الخارطة: اضغط على الأزرار الخضراء مع رمز الصليب الأسود للتكبير. على الزر الأخضر مع شرطة للتصغير، أو على الأسهم الخضراء للخرائط المجاورة.


METAR-TAF: